<?xml version="1.0" encoding="UTF-8" standalone="no" ?>
<gpx xmlns="http://www.topografix.com/GPX/1/1" xmlns:xsi="http://www.w3.org/2001/XMLSchema-instance" xsi:schemaLocation="http://www.topografix.com/GPX/1/1 http://www.topografix.com/GPX/1/1/gpx.xsd" version="1.1" creator="VisuGPX - https://www.visugpx.com">
  <metadata>
    <name>2017-09-18-46-labastide-murat</name>
    <desc><![CDATA[belle randonnée de 12km au pays du maréchal Murat.Pas de difficulté, ]]></desc>
  </metadata>
  <trk>
    <name><![CDATA[LABASTIDE MURAT :48]]></name>
    <trkseg>
      <trkpt lat="44.6462" lon="1.56791">
        <ele>441.86</ele>
        <time>2017-09-18T12:06:11Z</time>
      </trkpt>
      <trkpt lat="44.64627" lon="1.56759">
        <ele>440.9</ele>
        <time>2017-09-18T12:08:21Z</time>
      </trkpt>
      <trkpt lat="44.64648" lon="1.56746">
        <ele>439.46</ele>
        <time>2017-09-18T12:08:54Z</time>
      </trkpt>
      <trkpt lat="44.64666" lon="1.56754">
        <ele>440.9</ele>
        <time>2017-09-18T12:09:19Z</time>
      </trkpt>
      <trkpt lat="44.64682" lon="1.56741">
        <ele>441.38</ele>
        <time>2017-09-18T12:09:50Z</time>
      </trkpt>
      <trkpt lat="44.64689" lon="1.56712">
        <ele>439.46</ele>
        <time>2017-09-18T12:10:20Z</time>
      </trkpt>
      <trkpt lat="44.64708" lon="1.56713">
        <ele>438.5</ele>
        <time>2017-09-18T12:10:39Z</time>
      </trkpt>
      <trkpt lat="44.64725" lon="1.5672">
        <ele>439.94</ele>
        <time>2017-09-18T12:10:58Z</time>
      </trkpt>
      <trkpt lat="44.64746" lon="1.56731">
        <ele>440.42</ele>
        <time>2017-09-18T12:11:27Z</time>
      </trkpt>
      <trkpt lat="44.64764" lon="1.56739">
        <ele>440.42</ele>
        <time>2017-09-18T12:11:47Z</time>
      </trkpt>
      <trkpt lat="44.64787" lon="1.56744">
        <ele>440.9</ele>
        <time>2017-09-18T12:12:48Z</time>
      </trkpt>
      <trkpt lat="44.64808" lon="1.56745">
        <ele>440.9</ele>
        <time>2017-09-18T12:13:03Z</time>
      </trkpt>
      <trkpt lat="44.64832" lon="1.5675">
        <ele>440.9</ele>
        <time>2017-09-18T12:13:19Z</time>
      </trkpt>
      <trkpt lat="44.64854" lon="1.56754">
        <ele>440.9</ele>
        <time>2017-09-18T12:13:34Z</time>
      </trkpt>
      <trkpt lat="44.64876" lon="1.56753">
        <ele>440.9</ele>
        <time>2017-09-18T12:13:48Z</time>
      </trkpt>
      <trkpt lat="44.64897" lon="1.56745">
        <ele>440.42</ele>
        <time>2017-09-18T12:14:04Z</time>
      </trkpt>
      <trkpt lat="44.64918" lon="1.56742">
        <ele>439.46</ele>
        <time>2017-09-18T12:14:17Z</time>
      </trkpt>
      <trkpt lat="44.64939" lon="1.56739">
        <ele>437.54</ele>
        <time>2017-09-18T12:14:31Z</time>
      </trkpt>
      <trkpt lat="44.6496" lon="1.5674">
        <ele>435.13</ele>
        <time>2017-09-18T12:14:45Z</time>
      </trkpt>
      <trkpt lat="44.64981" lon="1.56743">
        <ele>434.17</ele>
        <time>2017-09-18T12:15:01Z</time>
      </trkpt>
      <trkpt lat="44.65" lon="1.56744">
        <ele>431.29</ele>
        <time>2017-09-18T12:15:18Z</time>
      </trkpt>
      <trkpt lat="44.65019" lon="1.56752">
        <ele>427.92</ele>
        <time>2017-09-18T12:15:40Z</time>
      </trkpt>
      <trkpt lat="44.65043" lon="1.56756">
        <ele>426</ele>
        <time>2017-09-18T12:15:59Z</time>
      </trkpt>
      <trkpt lat="44.65063" lon="1.56761">
        <ele>423.6</ele>
        <time>2017-09-18T12:16:21Z</time>
      </trkpt>
      <trkpt lat="44.6508" lon="1.56774">
        <ele>423.12</ele>
        <time>2017-09-18T12:16:43Z</time>
      </trkpt>
      <trkpt lat="44.65098" lon="1.56778">
        <ele>421.19</ele>
        <time>2017-09-18T12:16:59Z</time>
      </trkpt>
      <trkpt lat="44.65116" lon="1.56784">
        <ele>420.23</ele>
        <time>2017-09-18T12:17:27Z</time>
      </trkpt>
      <trkpt lat="44.65134" lon="1.56792">
        <ele>419.27</ele>
        <time>2017-09-18T12:17:46Z</time>
      </trkpt>
      <trkpt lat="44.65151" lon="1.56803">
        <ele>418.31</ele>
        <time>2017-09-18T12:18:17Z</time>
      </trkpt>
      <trkpt lat="44.65167" lon="1.56815">
        <ele>417.35</ele>
        <time>2017-09-18T12:18:36Z</time>
      </trkpt>
      <trkpt lat="44.65186" lon="1.56823">
        <ele>416.39</ele>
        <time>2017-09-18T12:18:55Z</time>
      </trkpt>
      <trkpt lat="44.65204" lon="1.56827">
        <ele>414.95</ele>
        <time>2017-09-18T12:19:12Z</time>
      </trkpt>
      <trkpt lat="44.65223" lon="1.56829">
        <ele>413.5</ele>
        <time>2017-09-18T12:19:27Z</time>
      </trkpt>
      <trkpt lat="44.65243" lon="1.56827">
        <ele>412.54</ele>
        <time>2017-09-18T12:19:43Z</time>
      </trkpt>
      <trkpt lat="44.65261" lon="1.56827">
        <ele>412.06</ele>
        <time>2017-09-18T12:20:05Z</time>
      </trkpt>
      <trkpt lat="44.65281" lon="1.56829">
        <ele>411.58</ele>
        <time>2017-09-18T12:20:22Z</time>
      </trkpt>
      <trkpt lat="44.65301" lon="1.5683">
        <ele>411.58</ele>
        <time>2017-09-18T12:20:39Z</time>
      </trkpt>
      <trkpt lat="44.65323" lon="1.56837">
        <ele>411.58</ele>
        <time>2017-09-18T12:20:57Z</time>
      </trkpt>
      <trkpt lat="44.65344" lon="1.56844">
        <ele>412.54</ele>
        <time>2017-09-18T12:21:15Z</time>
      </trkpt>
      <trkpt lat="44.65362" lon="1.56857">
        <ele>412.54</ele>
        <time>2017-09-18T12:21:35Z</time>
      </trkpt>
      <trkpt lat="44.65374" lon="1.56881">
        <ele>409.66</ele>
        <time>2017-09-18T12:21:54Z</time>
      </trkpt>
      <trkpt lat="44.65385" lon="1.56909">
        <ele>408.7</ele>
        <time>2017-09-18T12:22:13Z</time>
      </trkpt>
      <trkpt lat="44.654" lon="1.56931">
        <ele>407.26</ele>
        <time>2017-09-18T12:22:32Z</time>
      </trkpt>
      <trkpt lat="44.65415" lon="1.56951">
        <ele>405.81</ele>
        <time>2017-09-18T12:22:50Z</time>
      </trkpt>
      <trkpt lat="44.6543" lon="1.56964">
        <ele>404.37</ele>
        <time>2017-09-18T12:23:16Z</time>
      </trkpt>
      <trkpt lat="44.65442" lon="1.56984">
        <ele>402.93</ele>
        <time>2017-09-18T12:25:29Z</time>
      </trkpt>
      <trkpt lat="44.65455" lon="1.57008">
        <ele>401.49</ele>
        <time>2017-09-18T12:25:42Z</time>
      </trkpt>
      <trkpt lat="44.65464" lon="1.57032">
        <ele>399.57</ele>
        <time>2017-09-18T12:25:55Z</time>
      </trkpt>
      <trkpt lat="44.65475" lon="1.57059">
        <ele>397.64</ele>
        <time>2017-09-18T12:26:09Z</time>
      </trkpt>
      <trkpt lat="44.65492" lon="1.57076">
        <ele>396.2</ele>
        <time>2017-09-18T12:26:22Z</time>
      </trkpt>
      <trkpt lat="44.65513" lon="1.57076">
        <ele>395.72</ele>
        <time>2017-09-18T12:26:35Z</time>
      </trkpt>
      <trkpt lat="44.65533" lon="1.57068">
        <ele>395.72</ele>
        <time>2017-09-18T12:26:48Z</time>
      </trkpt>
      <trkpt lat="44.65554" lon="1.57059">
        <ele>395.24</ele>
        <time>2017-09-18T12:27:01Z</time>
      </trkpt>
      <trkpt lat="44.65575" lon="1.57053">
        <ele>395.24</ele>
        <time>2017-09-18T12:27:15Z</time>
      </trkpt>
      <trkpt lat="44.65598" lon="1.57051">
        <ele>395.24</ele>
        <time>2017-09-18T12:27:28Z</time>
      </trkpt>
      <trkpt lat="44.65618" lon="1.57061">
        <ele>394.76</ele>
        <time>2017-09-18T12:27:41Z</time>
      </trkpt>
      <trkpt lat="44.65636" lon="1.57078">
        <ele>394.76</ele>
        <time>2017-09-18T12:27:53Z</time>
      </trkpt>
      <trkpt lat="44.65653" lon="1.57096">
        <ele>394.28</ele>
        <time>2017-09-18T12:28:06Z</time>
      </trkpt>
      <trkpt lat="44.6567" lon="1.57117">
        <ele>393.8</ele>
        <time>2017-09-18T12:28:19Z</time>
      </trkpt>
      <trkpt lat="44.65689" lon="1.57134">
        <ele>392.84</ele>
        <time>2017-09-18T12:28:33Z</time>
      </trkpt>
      <trkpt lat="44.6571" lon="1.57143">
        <ele>392.36</ele>
        <time>2017-09-18T12:28:46Z</time>
      </trkpt>
      <trkpt lat="44.65732" lon="1.57159">
        <ele>391.87</ele>
        <time>2017-09-18T12:29:01Z</time>
      </trkpt>
      <trkpt lat="44.65754" lon="1.57176">
        <ele>390.91</ele>
        <time>2017-09-18T12:29:18Z</time>
      </trkpt>
      <trkpt lat="44.65778" lon="1.572">
        <ele>389.95</ele>
        <time>2017-09-18T12:29:42Z</time>
      </trkpt>
      <trkpt lat="44.65794" lon="1.57226">
        <ele>388.99</ele>
        <time>2017-09-18T12:30:04Z</time>
      </trkpt>
      <trkpt lat="44.6581" lon="1.5725">
        <ele>388.51</ele>
        <time>2017-09-18T12:30:22Z</time>
      </trkpt>
      <trkpt lat="44.65828" lon="1.57272">
        <ele>387.55</ele>
        <time>2017-09-18T12:30:40Z</time>
      </trkpt>
      <trkpt lat="44.65843" lon="1.57293">
        <ele>387.07</ele>
        <time>2017-09-18T12:30:58Z</time>
      </trkpt>
      <trkpt lat="44.65856" lon="1.57312">
        <ele>386.59</ele>
        <time>2017-09-18T12:31:14Z</time>
      </trkpt>
      <trkpt lat="44.65871" lon="1.57332">
        <ele>385.63</ele>
        <time>2017-09-18T12:31:31Z</time>
      </trkpt>
      <trkpt lat="44.65888" lon="1.57352">
        <ele>383.7</ele>
        <time>2017-09-18T12:31:53Z</time>
      </trkpt>
      <trkpt lat="44.659" lon="1.57376">
        <ele>382.74</ele>
        <time>2017-09-18T12:32:13Z</time>
      </trkpt>
      <trkpt lat="44.65906" lon="1.57411">
        <ele>382.74</ele>
        <time>2017-09-18T12:32:36Z</time>
      </trkpt>
      <trkpt lat="44.65911" lon="1.57441">
        <ele>384.18</ele>
        <time>2017-09-18T12:32:55Z</time>
      </trkpt>
      <trkpt lat="44.65916" lon="1.57468">
        <ele>384.66</ele>
        <time>2017-09-18T12:33:14Z</time>
      </trkpt>
      <trkpt lat="44.65921" lon="1.575">
        <ele>385.15</ele>
        <time>2017-09-18T12:33:35Z</time>
      </trkpt>
      <trkpt lat="44.65924" lon="1.57534">
        <ele>386.11</ele>
        <time>2017-09-18T12:33:55Z</time>
      </trkpt>
      <trkpt lat="44.65925" lon="1.5756">
        <ele>387.55</ele>
        <time>2017-09-18T12:34:19Z</time>
      </trkpt>
      <trkpt lat="44.65916" lon="1.57582">
        <ele>389.47</ele>
        <time>2017-09-18T12:34:40Z</time>
      </trkpt>
      <trkpt lat="44.65906" lon="1.57607">
        <ele>391.39</ele>
        <time>2017-09-18T12:35:01Z</time>
      </trkpt>
      <trkpt lat="44.65899" lon="1.57635">
        <ele>394.28</ele>
        <time>2017-09-18T12:35:27Z</time>
      </trkpt>
      <trkpt lat="44.6589" lon="1.5766">
        <ele>396.2</ele>
        <time>2017-09-18T12:35:52Z</time>
      </trkpt>
      <trkpt lat="44.65881" lon="1.57685">
        <ele>398.6</ele>
        <time>2017-09-18T12:36:19Z</time>
      </trkpt>
      <trkpt lat="44.65872" lon="1.57711">
        <ele>401.49</ele>
        <time>2017-09-18T12:36:52Z</time>
      </trkpt>
      <trkpt lat="44.65867" lon="1.57738">
        <ele>403.89</ele>
        <time>2017-09-18T12:37:17Z</time>
      </trkpt>
      <trkpt lat="44.65861" lon="1.57763">
        <ele>405.81</ele>
        <time>2017-09-18T12:37:41Z</time>
      </trkpt>
      <trkpt lat="44.65856" lon="1.57791">
        <ele>407.74</ele>
        <time>2017-09-18T12:38:03Z</time>
      </trkpt>
      <trkpt lat="44.65851" lon="1.57818">
        <ele>409.18</ele>
        <time>2017-09-18T12:38:23Z</time>
      </trkpt>
      <trkpt lat="44.65844" lon="1.57845">
        <ele>409.66</ele>
        <time>2017-09-18T12:38:43Z</time>
      </trkpt>
      <trkpt lat="44.65837" lon="1.57871">
        <ele>410.62</ele>
        <time>2017-09-18T12:39:02Z</time>
      </trkpt>
      <trkpt lat="44.6583" lon="1.57897">
        <ele>411.58</ele>
        <time>2017-09-18T12:39:21Z</time>
      </trkpt>
      <trkpt lat="44.65824" lon="1.57922">
        <ele>413.02</ele>
        <time>2017-09-18T12:39:40Z</time>
      </trkpt>
      <trkpt lat="44.65814" lon="1.57949">
        <ele>413.98</ele>
        <time>2017-09-18T12:39:59Z</time>
      </trkpt>
      <trkpt lat="44.65804" lon="1.57974">
        <ele>415.43</ele>
        <time>2017-09-18T12:40:18Z</time>
      </trkpt>
      <trkpt lat="44.65796" lon="1.57999">
        <ele>416.39</ele>
        <time>2017-09-18T12:40:36Z</time>
      </trkpt>
      <trkpt lat="44.65789" lon="1.58026">
        <ele>417.35</ele>
        <time>2017-09-18T12:40:55Z</time>
      </trkpt>
      <trkpt lat="44.65783" lon="1.58052">
        <ele>418.31</ele>
        <time>2017-09-18T12:41:15Z</time>
      </trkpt>
      <trkpt lat="44.65778" lon="1.58081">
        <ele>419.75</ele>
        <time>2017-09-18T12:41:35Z</time>
      </trkpt>
      <trkpt lat="44.65771" lon="1.5811">
        <ele>421.68</ele>
        <time>2017-09-18T12:41:57Z</time>
      </trkpt>
      <trkpt lat="44.65768" lon="1.5814">
        <ele>423.6</ele>
        <time>2017-09-18T12:42:19Z</time>
      </trkpt>
      <trkpt lat="44.65763" lon="1.5817">
        <ele>425.04</ele>
        <time>2017-09-18T12:42:40Z</time>
      </trkpt>
      <trkpt lat="44.65756" lon="1.58199">
        <ele>426.96</ele>
        <time>2017-09-18T12:43:00Z</time>
      </trkpt>
      <trkpt lat="44.65748" lon="1.58225">
        <ele>427.44</ele>
        <time>2017-09-18T12:43:18Z</time>
      </trkpt>
      <trkpt lat="44.65738" lon="1.58248">
        <ele>427.92</ele>
        <time>2017-09-18T12:43:36Z</time>
      </trkpt>
      <trkpt lat="44.65726" lon="1.58274">
        <ele>427.92</ele>
        <time>2017-09-18T12:43:55Z</time>
      </trkpt>
      <trkpt lat="44.65718" lon="1.58298">
        <ele>428.89</ele>
        <time>2017-09-18T12:44:13Z</time>
      </trkpt>
      <trkpt lat="44.6571" lon="1.58325">
        <ele>430.33</ele>
        <time>2017-09-18T12:44:33Z</time>
      </trkpt>
      <trkpt lat="44.65701" lon="1.58351">
        <ele>432.25</ele>
        <time>2017-09-18T12:44:54Z</time>
      </trkpt>
      <trkpt lat="44.65692" lon="1.58375">
        <ele>434.17</ele>
        <time>2017-09-18T12:45:14Z</time>
      </trkpt>
      <trkpt lat="44.65689" lon="1.58401">
        <ele>435.13</ele>
        <time>2017-09-18T12:45:34Z</time>
      </trkpt>
      <trkpt lat="44.65686" lon="1.58421">
        <ele>435.61</ele>
        <time>2017-09-18T12:48:32Z</time>
      </trkpt>
      <trkpt lat="44.65682" lon="1.58447">
        <ele>436.1</ele>
        <time>2017-09-18T12:48:55Z</time>
      </trkpt>
      <trkpt lat="44.65676" lon="1.58476">
        <ele>436.58</ele>
        <time>2017-09-18T12:49:15Z</time>
      </trkpt>
      <trkpt lat="44.65669" lon="1.58504">
        <ele>436.58</ele>
        <time>2017-09-18T12:49:37Z</time>
      </trkpt>
      <trkpt lat="44.65669" lon="1.58529">
        <ele>436.58</ele>
        <time>2017-09-18T12:49:57Z</time>
      </trkpt>
      <trkpt lat="44.65677" lon="1.58554">
        <ele>435.13</ele>
        <time>2017-09-18T12:50:17Z</time>
      </trkpt>
      <trkpt lat="44.65681" lon="1.5858">
        <ele>434.17</ele>
        <time>2017-09-18T12:50:34Z</time>
      </trkpt>
      <trkpt lat="44.65672" lon="1.58605">
        <ele>432.73</ele>
        <time>2017-09-18T12:50:52Z</time>
      </trkpt>
      <trkpt lat="44.65656" lon="1.58621">
        <ele>431.77</ele>
        <time>2017-09-18T12:51:11Z</time>
      </trkpt>
      <trkpt lat="44.65646" lon="1.58644">
        <ele>430.33</ele>
        <time>2017-09-18T12:51:29Z</time>
      </trkpt>
      <trkpt lat="44.65643" lon="1.5867">
        <ele>428.89</ele>
        <time>2017-09-18T12:51:47Z</time>
      </trkpt>
      <trkpt lat="44.65651" lon="1.58698">
        <ele>426.96</ele>
        <time>2017-09-18T12:52:09Z</time>
      </trkpt>
      <trkpt lat="44.65661" lon="1.58719">
        <ele>425.52</ele>
        <time>2017-09-18T12:52:27Z</time>
      </trkpt>
      <trkpt lat="44.6567" lon="1.58744">
        <ele>423.6</ele>
        <time>2017-09-18T12:52:46Z</time>
      </trkpt>
      <trkpt lat="44.65679" lon="1.58774">
        <ele>421.19</ele>
        <time>2017-09-18T12:53:08Z</time>
      </trkpt>
      <trkpt lat="44.65696" lon="1.58802">
        <ele>417.83</ele>
        <time>2017-09-18T12:53:31Z</time>
      </trkpt>
      <trkpt lat="44.65705" lon="1.58826">
        <ele>415.43</ele>
        <time>2017-09-18T12:53:50Z</time>
      </trkpt>
      <trkpt lat="44.65711" lon="1.58854">
        <ele>412.54</ele>
        <time>2017-09-18T12:54:08Z</time>
      </trkpt>
      <trkpt lat="44.6571" lon="1.5888">
        <ele>411.1</ele>
        <time>2017-09-18T12:54:26Z</time>
      </trkpt>
      <trkpt lat="44.65707" lon="1.58908">
        <ele>409.66</ele>
        <time>2017-09-18T12:54:44Z</time>
      </trkpt>
      <trkpt lat="44.65702" lon="1.58935">
        <ele>408.22</ele>
        <time>2017-09-18T12:55:01Z</time>
      </trkpt>
      <trkpt lat="44.65699" lon="1.58961">
        <ele>407.26</ele>
        <time>2017-09-18T12:55:18Z</time>
      </trkpt>
      <trkpt lat="44.65697" lon="1.58988">
        <ele>406.29</ele>
        <time>2017-09-18T12:55:36Z</time>
      </trkpt>
      <trkpt lat="44.65694" lon="1.59013">
        <ele>405.33</ele>
        <time>2017-09-18T12:55:54Z</time>
      </trkpt>
      <trkpt lat="44.65691" lon="1.59043">
        <ele>403.41</ele>
        <time>2017-09-18T12:56:14Z</time>
      </trkpt>
      <trkpt lat="44.65697" lon="1.59069">
        <ele>402.93</ele>
        <time>2017-09-18T12:56:34Z</time>
      </trkpt>
      <trkpt lat="44.6571" lon="1.59092">
        <ele>400.05</ele>
        <time>2017-09-18T12:56:54Z</time>
      </trkpt>
      <trkpt lat="44.65722" lon="1.59114">
        <ele>398.6</ele>
        <time>2017-09-18T12:57:14Z</time>
      </trkpt>
      <trkpt lat="44.65731" lon="1.59143">
        <ele>398.12</ele>
        <time>2017-09-18T12:57:32Z</time>
      </trkpt>
      <trkpt lat="44.65736" lon="1.59169">
        <ele>398.12</ele>
        <time>2017-09-18T12:57:50Z</time>
      </trkpt>
      <trkpt lat="44.65747" lon="1.59197">
        <ele>401.01</ele>
        <time>2017-09-18T12:58:11Z</time>
      </trkpt>
      <trkpt lat="44.6576" lon="1.59224">
        <ele>402.93</ele>
        <time>2017-09-18T12:58:34Z</time>
      </trkpt>
      <trkpt lat="44.65771" lon="1.59253">
        <ele>405.33</ele>
        <time>2017-09-18T12:58:56Z</time>
      </trkpt>
      <trkpt lat="44.65779" lon="1.5928">
        <ele>406.77</ele>
        <time>2017-09-18T12:59:16Z</time>
      </trkpt>
      <trkpt lat="44.65788" lon="1.59306">
        <ele>408.22</ele>
        <time>2017-09-18T12:59:36Z</time>
      </trkpt>
      <trkpt lat="44.65797" lon="1.59331">
        <ele>410.14</ele>
        <time>2017-09-18T12:59:57Z</time>
      </trkpt>
      <trkpt lat="44.65802" lon="1.59357">
        <ele>411.58</ele>
        <time>2017-09-18T13:00:25Z</time>
      </trkpt>
      <trkpt lat="44.65814" lon="1.59381">
        <ele>412.06</ele>
        <time>2017-09-18T13:00:46Z</time>
      </trkpt>
      <trkpt lat="44.65827" lon="1.59408">
        <ele>414.95</ele>
        <time>2017-09-18T13:01:12Z</time>
      </trkpt>
      <trkpt lat="44.65837" lon="1.59438">
        <ele>417.35</ele>
        <time>2017-09-18T13:01:41Z</time>
      </trkpt>
      <trkpt lat="44.65849" lon="1.59464">
        <ele>418.79</ele>
        <time>2017-09-18T13:02:04Z</time>
      </trkpt>
      <trkpt lat="44.65858" lon="1.5949">
        <ele>419.27</ele>
        <time>2017-09-18T13:02:26Z</time>
      </trkpt>
      <trkpt lat="44.65867" lon="1.59516">
        <ele>420.23</ele>
        <time>2017-09-18T13:02:48Z</time>
      </trkpt>
      <trkpt lat="44.65875" lon="1.59544">
        <ele>420.23</ele>
        <time>2017-09-18T13:03:10Z</time>
      </trkpt>
      <trkpt lat="44.65879" lon="1.59575">
        <ele>418.79</ele>
        <time>2017-09-18T13:03:31Z</time>
      </trkpt>
      <trkpt lat="44.65881" lon="1.59605">
        <ele>416.39</ele>
        <time>2017-09-18T13:03:52Z</time>
      </trkpt>
      <trkpt lat="44.65884" lon="1.59634">
        <ele>413.98</ele>
        <time>2017-09-18T13:04:15Z</time>
      </trkpt>
      <trkpt lat="44.6589" lon="1.59667">
        <ele>411.1</ele>
        <time>2017-09-18T13:04:38Z</time>
      </trkpt>
      <trkpt lat="44.65895" lon="1.59695">
        <ele>408.22</ele>
        <time>2017-09-18T13:04:59Z</time>
      </trkpt>
      <trkpt lat="44.65897" lon="1.59727">
        <ele>404.85</ele>
        <time>2017-09-18T13:05:24Z</time>
      </trkpt>
      <trkpt lat="44.65895" lon="1.59761">
        <ele>401.01</ele>
        <time>2017-09-18T13:05:47Z</time>
      </trkpt>
      <trkpt lat="44.65914" lon="1.59779">
        <ele>397.16</ele>
        <time>2017-09-18T13:06:15Z</time>
      </trkpt>
      <trkpt lat="44.65929" lon="1.59801">
        <ele>395.24</ele>
        <time>2017-09-18T13:06:35Z</time>
      </trkpt>
      <trkpt lat="44.65937" lon="1.59817">
        <ele>394.76</ele>
        <time>2017-09-18T13:09:40Z</time>
      </trkpt>
      <trkpt lat="44.65951" lon="1.59833">
        <ele>394.76</ele>
        <time>2017-09-18T13:11:00Z</time>
      </trkpt>
      <trkpt lat="44.65961" lon="1.5986">
        <ele>396.2</ele>
        <time>2017-09-18T13:11:21Z</time>
      </trkpt>
      <trkpt lat="44.65968" lon="1.59888">
        <ele>398.12</ele>
        <time>2017-09-18T13:11:59Z</time>
      </trkpt>
      <trkpt lat="44.6597" lon="1.59918">
        <ele>397.64</ele>
        <time>2017-09-18T13:12:18Z</time>
      </trkpt>
      <trkpt lat="44.65968" lon="1.59948">
        <ele>395.72</ele>
        <time>2017-09-18T13:12:37Z</time>
      </trkpt>
      <trkpt lat="44.65965" lon="1.59979">
        <ele>394.28</ele>
        <time>2017-09-18T13:12:57Z</time>
      </trkpt>
      <trkpt lat="44.6597" lon="1.60007">
        <ele>392.36</ele>
        <time>2017-09-18T13:13:16Z</time>
      </trkpt>
      <trkpt lat="44.65974" lon="1.60038">
        <ele>391.87</ele>
        <time>2017-09-18T13:13:37Z</time>
      </trkpt>
      <trkpt lat="44.65978" lon="1.6007">
        <ele>391.87</ele>
        <time>2017-09-18T13:13:57Z</time>
      </trkpt>
      <trkpt lat="44.65983" lon="1.60103">
        <ele>390.91</ele>
        <time>2017-09-18T13:14:19Z</time>
      </trkpt>
      <trkpt lat="44.65986" lon="1.60142">
        <ele>390.43</ele>
        <time>2017-09-18T13:14:40Z</time>
      </trkpt>
      <trkpt lat="44.6599" lon="1.60174">
        <ele>390.43</ele>
        <time>2017-09-18T13:14:57Z</time>
      </trkpt>
      <trkpt lat="44.65993" lon="1.60203">
        <ele>389.47</ele>
        <time>2017-09-18T13:15:15Z</time>
      </trkpt>
      <trkpt lat="44.65996" lon="1.60232">
        <ele>389.47</ele>
        <time>2017-09-18T13:15:34Z</time>
      </trkpt>
      <trkpt lat="44.65998" lon="1.60262">
        <ele>389.47</ele>
        <time>2017-09-18T13:15:52Z</time>
      </trkpt>
      <trkpt lat="44.66006" lon="1.60289">
        <ele>389.47</ele>
        <time>2017-09-18T13:16:16Z</time>
      </trkpt>
      <trkpt lat="44.66026" lon="1.60281">
        <ele>389.47</ele>
        <time>2017-09-18T13:16:36Z</time>
      </trkpt>
      <trkpt lat="44.66044" lon="1.60271">
        <ele>389.47</ele>
        <time>2017-09-18T13:16:54Z</time>
      </trkpt>
      <trkpt lat="44.66063" lon="1.60263">
        <ele>388.03</ele>
        <time>2017-09-18T13:17:13Z</time>
      </trkpt>
      <trkpt lat="44.66083" lon="1.60256">
        <ele>387.55</ele>
        <time>2017-09-18T13:17:31Z</time>
      </trkpt>
      <trkpt lat="44.66102" lon="1.6025">
        <ele>387.55</ele>
        <time>2017-09-18T13:17:49Z</time>
      </trkpt>
      <trkpt lat="44.66122" lon="1.60241">
        <ele>386.59</ele>
        <time>2017-09-18T13:18:06Z</time>
      </trkpt>
      <trkpt lat="44.66142" lon="1.60232">
        <ele>384.66</ele>
        <time>2017-09-18T13:18:24Z</time>
      </trkpt>
      <trkpt lat="44.66161" lon="1.60222">
        <ele>383.22</ele>
        <time>2017-09-18T13:18:41Z</time>
      </trkpt>
      <trkpt lat="44.66181" lon="1.60212">
        <ele>382.74</ele>
        <time>2017-09-18T13:18:59Z</time>
      </trkpt>
      <trkpt lat="44.66201" lon="1.60206">
        <ele>382.74</ele>
        <time>2017-09-18T13:19:16Z</time>
      </trkpt>
      <trkpt lat="44.66225" lon="1.60205">
        <ele>384.18</ele>
        <time>2017-09-18T13:19:41Z</time>
      </trkpt>
      <trkpt lat="44.66246" lon="1.60205">
        <ele>385.63</ele>
        <time>2017-09-18T13:20:01Z</time>
      </trkpt>
      <trkpt lat="44.66268" lon="1.60209">
        <ele>386.59</ele>
        <time>2017-09-18T13:20:19Z</time>
      </trkpt>
      <trkpt lat="44.66276" lon="1.60236">
        <ele>386.59</ele>
        <time>2017-09-18T13:20:38Z</time>
      </trkpt>
      <trkpt lat="44.6628" lon="1.60263">
        <ele>384.66</ele>
        <time>2017-09-18T13:20:56Z</time>
      </trkpt>
      <trkpt lat="44.66282" lon="1.60289">
        <ele>383.7</ele>
        <time>2017-09-18T13:21:14Z</time>
      </trkpt>
      <trkpt lat="44.66268" lon="1.60309">
        <ele>382.74</ele>
        <time>2017-09-18T13:21:32Z</time>
      </trkpt>
      <trkpt lat="44.66254" lon="1.6033">
        <ele>381.78</ele>
        <time>2017-09-18T13:21:51Z</time>
      </trkpt>
      <trkpt lat="44.6624" lon="1.60349">
        <ele>380.82</ele>
        <time>2017-09-18T13:22:09Z</time>
      </trkpt>
      <trkpt lat="44.66232" lon="1.60373">
        <ele>379.86</ele>
        <time>2017-09-18T13:22:28Z</time>
      </trkpt>
      <trkpt lat="44.66234" lon="1.60401">
        <ele>377.94</ele>
        <time>2017-09-18T13:22:47Z</time>
      </trkpt>
      <trkpt lat="44.6624" lon="1.60428">
        <ele>376.49</ele>
        <time>2017-09-18T13:23:06Z</time>
      </trkpt>
      <trkpt lat="44.66247" lon="1.60455">
        <ele>374.57</ele>
        <time>2017-09-18T13:23:25Z</time>
      </trkpt>
      <trkpt lat="44.66255" lon="1.6048">
        <ele>373.13</ele>
        <time>2017-09-18T13:23:43Z</time>
      </trkpt>
      <trkpt lat="44.66265" lon="1.60505">
        <ele>371.69</ele>
        <time>2017-09-18T13:24:01Z</time>
      </trkpt>
      <trkpt lat="44.66273" lon="1.60533">
        <ele>370.73</ele>
        <time>2017-09-18T13:24:20Z</time>
      </trkpt>
      <trkpt lat="44.66283" lon="1.60562">
        <ele>370.24</ele>
        <time>2017-09-18T13:24:39Z</time>
      </trkpt>
      <trkpt lat="44.66292" lon="1.60591">
        <ele>370.24</ele>
        <time>2017-09-18T13:24:58Z</time>
      </trkpt>
      <trkpt lat="44.66303" lon="1.60618">
        <ele>370.24</ele>
        <time>2017-09-18T13:25:17Z</time>
      </trkpt>
      <trkpt lat="44.66314" lon="1.60643">
        <ele>369.76</ele>
        <time>2017-09-18T13:25:35Z</time>
      </trkpt>
      <trkpt lat="44.66329" lon="1.60667">
        <ele>368.32</ele>
        <time>2017-09-18T13:25:57Z</time>
      </trkpt>
      <trkpt lat="44.66351" lon="1.60684">
        <ele>365.92</ele>
        <time>2017-09-18T13:26:20Z</time>
      </trkpt>
      <trkpt lat="44.66376" lon="1.60695">
        <ele>364.48</ele>
        <time>2017-09-18T13:26:42Z</time>
      </trkpt>
      <trkpt lat="44.66389" lon="1.60725">
        <ele>362.55</ele>
        <time>2017-09-18T13:27:05Z</time>
      </trkpt>
      <trkpt lat="44.664" lon="1.60754">
        <ele>360.15</ele>
        <time>2017-09-18T13:27:29Z</time>
      </trkpt>
      <trkpt lat="44.6641" lon="1.60783">
        <ele>356.31</ele>
        <time>2017-09-18T13:27:54Z</time>
      </trkpt>
      <trkpt lat="44.66416" lon="1.60815">
        <ele>353.42</ele>
        <time>2017-09-18T13:28:18Z</time>
      </trkpt>
      <trkpt lat="44.66415" lon="1.60834">
        <ele>352.46</ele>
        <time>2017-09-18T13:28:47Z</time>
      </trkpt>
      <trkpt lat="44.66408" lon="1.60865">
        <ele>351.02</ele>
        <time>2017-09-18T13:29:15Z</time>
      </trkpt>
      <trkpt lat="44.66397" lon="1.60894">
        <ele>350.06</ele>
        <time>2017-09-18T13:29:35Z</time>
      </trkpt>
      <trkpt lat="44.66391" lon="1.60921">
        <ele>349.58</ele>
        <time>2017-09-18T13:29:54Z</time>
      </trkpt>
      <trkpt lat="44.66385" lon="1.60952">
        <ele>348.62</ele>
        <time>2017-09-18T13:30:13Z</time>
      </trkpt>
      <trkpt lat="44.66377" lon="1.60984">
        <ele>348.62</ele>
        <time>2017-09-18T13:30:31Z</time>
      </trkpt>
      <trkpt lat="44.66371" lon="1.61014">
        <ele>348.13</ele>
        <time>2017-09-18T13:30:51Z</time>
      </trkpt>
      <trkpt lat="44.66369" lon="1.61049">
        <ele>347.65</ele>
        <time>2017-09-18T13:31:11Z</time>
      </trkpt>
      <trkpt lat="44.66365" lon="1.61081">
        <ele>347.17</ele>
        <time>2017-09-18T13:31:30Z</time>
      </trkpt>
      <trkpt lat="44.6636" lon="1.61113">
        <ele>347.17</ele>
        <time>2017-09-18T13:31:49Z</time>
      </trkpt>
      <trkpt lat="44.66349" lon="1.61138">
        <ele>348.13</ele>
        <time>2017-09-18T13:32:08Z</time>
      </trkpt>
      <trkpt lat="44.6634" lon="1.61164">
        <ele>348.62</ele>
        <time>2017-09-18T13:32:28Z</time>
      </trkpt>
      <trkpt lat="44.66339" lon="1.61195">
        <ele>348.62</ele>
        <time>2017-09-18T13:32:47Z</time>
      </trkpt>
      <trkpt lat="44.66343" lon="1.61224">
        <ele>348.62</ele>
        <time>2017-09-18T13:33:05Z</time>
      </trkpt>
      <trkpt lat="44.66348" lon="1.61253">
        <ele>348.62</ele>
        <time>2017-09-18T13:33:21Z</time>
      </trkpt>
      <trkpt lat="44.66356" lon="1.61278">
        <ele>348.62</ele>
        <time>2017-09-18T13:33:37Z</time>
      </trkpt>
      <trkpt lat="44.66369" lon="1.61298">
        <ele>348.62</ele>
        <time>2017-09-18T13:33:53Z</time>
      </trkpt>
      <trkpt lat="44.66385" lon="1.61318">
        <ele>347.17</ele>
        <time>2017-09-18T13:34:12Z</time>
      </trkpt>
      <trkpt lat="44.66402" lon="1.61338">
        <ele>346.21</ele>
        <time>2017-09-18T13:34:31Z</time>
      </trkpt>
      <trkpt lat="44.6642" lon="1.61358">
        <ele>345.73</ele>
        <time>2017-09-18T13:34:50Z</time>
      </trkpt>
      <trkpt lat="44.66435" lon="1.61379">
        <ele>344.77</ele>
        <time>2017-09-18T13:35:08Z</time>
      </trkpt>
      <trkpt lat="44.66446" lon="1.61403">
        <ele>343.81</ele>
        <time>2017-09-18T13:35:26Z</time>
      </trkpt>
      <trkpt lat="44.66454" lon="1.61428">
        <ele>342.85</ele>
        <time>2017-09-18T13:35:43Z</time>
      </trkpt>
      <trkpt lat="44.66461" lon="1.61456">
        <ele>340.44</ele>
        <time>2017-09-18T13:36:13Z</time>
      </trkpt>
      <trkpt lat="44.66455" lon="1.61485">
        <ele>339.48</ele>
        <time>2017-09-18T13:36:30Z</time>
      </trkpt>
      <trkpt lat="44.66448" lon="1.61511">
        <ele>338.52</ele>
        <time>2017-09-18T13:36:46Z</time>
      </trkpt>
      <trkpt lat="44.66438" lon="1.61537">
        <ele>338.52</ele>
        <time>2017-09-18T13:37:02Z</time>
      </trkpt>
      <trkpt lat="44.66427" lon="1.61559">
        <ele>340.92</ele>
        <time>2017-09-18T13:37:20Z</time>
      </trkpt>
      <trkpt lat="44.6641" lon="1.61576">
        <ele>341.89</ele>
        <time>2017-09-18T13:37:39Z</time>
      </trkpt>
      <trkpt lat="44.66391" lon="1.61591">
        <ele>343.33</ele>
        <time>2017-09-18T13:37:59Z</time>
      </trkpt>
      <trkpt lat="44.6637" lon="1.61606">
        <ele>344.29</ele>
        <time>2017-09-18T13:38:18Z</time>
      </trkpt>
      <trkpt lat="44.66351" lon="1.61619">
        <ele>343.81</ele>
        <time>2017-09-18T13:38:36Z</time>
      </trkpt>
      <trkpt lat="44.6633" lon="1.61632">
        <ele>345.73</ele>
        <time>2017-09-18T13:38:55Z</time>
      </trkpt>
      <trkpt lat="44.66309" lon="1.61642">
        <ele>347.17</ele>
        <time>2017-09-18T13:39:16Z</time>
      </trkpt>
      <trkpt lat="44.66289" lon="1.61648">
        <ele>348.13</ele>
        <time>2017-09-18T13:39:34Z</time>
      </trkpt>
      <trkpt lat="44.6627" lon="1.61654">
        <ele>349.1</ele>
        <time>2017-09-18T13:39:50Z</time>
      </trkpt>
      <trkpt lat="44.6625" lon="1.61658">
        <ele>350.06</ele>
        <time>2017-09-18T13:40:07Z</time>
      </trkpt>
      <trkpt lat="44.66229" lon="1.61662">
        <ele>351.02</ele>
        <time>2017-09-18T13:40:26Z</time>
      </trkpt>
      <trkpt lat="44.66209" lon="1.61665">
        <ele>351.02</ele>
        <time>2017-09-18T13:40:45Z</time>
      </trkpt>
      <trkpt lat="44.66192" lon="1.61669">
        <ele>351.5</ele>
        <time>2017-09-18T13:43:03Z</time>
      </trkpt>
      <trkpt lat="44.66173" lon="1.61673">
        <ele>351.5</ele>
        <time>2017-09-18T13:43:23Z</time>
      </trkpt>
      <trkpt lat="44.66152" lon="1.61676">
        <ele>351.5</ele>
        <time>2017-09-18T13:43:43Z</time>
      </trkpt>
      <trkpt lat="44.6613" lon="1.61676">
        <ele>351.5</ele>
        <time>2017-09-18T13:44:05Z</time>
      </trkpt>
      <trkpt lat="44.66107" lon="1.6167">
        <ele>351.5</ele>
        <time>2017-09-18T13:44:28Z</time>
      </trkpt>
      <trkpt lat="44.66085" lon="1.61663">
        <ele>351.98</ele>
        <time>2017-09-18T13:44:49Z</time>
      </trkpt>
      <trkpt lat="44.66064" lon="1.61654">
        <ele>351.98</ele>
        <time>2017-09-18T13:45:06Z</time>
      </trkpt>
      <trkpt lat="44.66044" lon="1.61643">
        <ele>351.98</ele>
        <time>2017-09-18T13:45:23Z</time>
      </trkpt>
      <trkpt lat="44.66025" lon="1.61632">
        <ele>351.98</ele>
        <time>2017-09-18T13:45:39Z</time>
      </trkpt>
      <trkpt lat="44.66007" lon="1.61622">
        <ele>352.46</ele>
        <time>2017-09-18T13:45:55Z</time>
      </trkpt>
      <trkpt lat="44.65989" lon="1.61612">
        <ele>352.46</ele>
        <time>2017-09-18T13:46:12Z</time>
      </trkpt>
      <trkpt lat="44.65971" lon="1.616">
        <ele>352.94</ele>
        <time>2017-09-18T13:46:29Z</time>
      </trkpt>
      <trkpt lat="44.65954" lon="1.61586">
        <ele>352.94</ele>
        <time>2017-09-18T13:46:47Z</time>
      </trkpt>
      <trkpt lat="44.65937" lon="1.61572">
        <ele>352.94</ele>
        <time>2017-09-18T13:47:04Z</time>
      </trkpt>
      <trkpt lat="44.6592" lon="1.61559">
        <ele>353.42</ele>
        <time>2017-09-18T13:47:22Z</time>
      </trkpt>
      <trkpt lat="44.65902" lon="1.61545">
        <ele>354.86</ele>
        <time>2017-09-18T13:47:40Z</time>
      </trkpt>
      <trkpt lat="44.65883" lon="1.61536">
        <ele>355.34</ele>
        <time>2017-09-18T13:47:58Z</time>
      </trkpt>
      <trkpt lat="44.65864" lon="1.61527">
        <ele>356.31</ele>
        <time>2017-09-18T13:48:17Z</time>
      </trkpt>
      <trkpt lat="44.65849" lon="1.61513">
        <ele>356.31</ele>
        <time>2017-09-18T13:49:19Z</time>
      </trkpt>
      <trkpt lat="44.65846" lon="1.61485">
        <ele>356.79</ele>
        <time>2017-09-18T13:49:39Z</time>
      </trkpt>
      <trkpt lat="44.65841" lon="1.61456">
        <ele>356.79</ele>
        <time>2017-09-18T13:49:58Z</time>
      </trkpt>
      <trkpt lat="44.6584" lon="1.61424">
        <ele>354.86</ele>
        <time>2017-09-18T13:50:18Z</time>
      </trkpt>
      <trkpt lat="44.65839" lon="1.61395">
        <ele>354.38</ele>
        <time>2017-09-18T13:50:36Z</time>
      </trkpt>
      <trkpt lat="44.65833" lon="1.61366">
        <ele>354.38</ele>
        <time>2017-09-18T13:50:55Z</time>
      </trkpt>
      <trkpt lat="44.65826" lon="1.61337">
        <ele>353.9</ele>
        <time>2017-09-18T13:51:12Z</time>
      </trkpt>
      <trkpt lat="44.65821" lon="1.61314">
        <ele>353.42</ele>
        <time>2017-09-18T13:51:40Z</time>
      </trkpt>
      <trkpt lat="44.65814" lon="1.61285">
        <ele>353.42</ele>
        <time>2017-09-18T13:51:59Z</time>
      </trkpt>
      <trkpt lat="44.65803" lon="1.6126">
        <ele>354.86</ele>
        <time>2017-09-18T13:52:17Z</time>
      </trkpt>
      <trkpt lat="44.65788" lon="1.61241">
        <ele>355.83</ele>
        <time>2017-09-18T13:52:34Z</time>
      </trkpt>
      <trkpt lat="44.65772" lon="1.61226">
        <ele>356.79</ele>
        <time>2017-09-18T13:52:51Z</time>
      </trkpt>
      <trkpt lat="44.65754" lon="1.6121">
        <ele>358.23</ele>
        <time>2017-09-18T13:53:09Z</time>
      </trkpt>
      <trkpt lat="44.65739" lon="1.61193">
        <ele>359.19</ele>
        <time>2017-09-18T13:53:27Z</time>
      </trkpt>
      <trkpt lat="44.65724" lon="1.61175">
        <ele>360.63</ele>
        <time>2017-09-18T13:53:46Z</time>
      </trkpt>
      <trkpt lat="44.6571" lon="1.61154">
        <ele>362.07</ele>
        <time>2017-09-18T13:54:05Z</time>
      </trkpt>
      <trkpt lat="44.65696" lon="1.61133">
        <ele>364</ele>
        <time>2017-09-18T13:54:24Z</time>
      </trkpt>
      <trkpt lat="44.65683" lon="1.61109">
        <ele>365.92</ele>
        <time>2017-09-18T13:54:45Z</time>
      </trkpt>
      <trkpt lat="44.65667" lon="1.61083">
        <ele>366.4</ele>
        <time>2017-09-18T13:55:06Z</time>
      </trkpt>
      <trkpt lat="44.65651" lon="1.61065">
        <ele>367.84</ele>
        <time>2017-09-18T13:55:25Z</time>
      </trkpt>
      <trkpt lat="44.65634" lon="1.61049">
        <ele>368.8</ele>
        <time>2017-09-18T13:55:44Z</time>
      </trkpt>
      <trkpt lat="44.65618" lon="1.61034">
        <ele>369.76</ele>
        <time>2017-09-18T13:56:02Z</time>
      </trkpt>
      <trkpt lat="44.65603" lon="1.61017">
        <ele>369.76</ele>
        <time>2017-09-18T13:56:19Z</time>
      </trkpt>
      <trkpt lat="44.65589" lon="1.61">
        <ele>370.24</ele>
        <time>2017-09-18T13:56:35Z</time>
      </trkpt>
      <trkpt lat="44.65576" lon="1.60975">
        <ele>368.8</ele>
        <time>2017-09-18T13:56:52Z</time>
      </trkpt>
      <trkpt lat="44.65569" lon="1.60946">
        <ele>368.32</ele>
        <time>2017-09-18T13:57:13Z</time>
      </trkpt>
      <trkpt lat="44.65568" lon="1.6092">
        <ele>368.32</ele>
        <time>2017-09-18T13:57:28Z</time>
      </trkpt>
      <trkpt lat="44.65575" lon="1.60891">
        <ele>368.32</ele>
        <time>2017-09-18T13:57:43Z</time>
      </trkpt>
      <trkpt lat="44.65581" lon="1.60868">
        <ele>368.32</ele>
        <time>2017-09-18T13:58:00Z</time>
      </trkpt>
      <trkpt lat="44.65584" lon="1.6084">
        <ele>370.24</ele>
        <time>2017-09-18T13:58:16Z</time>
      </trkpt>
      <trkpt lat="44.65581" lon="1.60809">
        <ele>371.21</ele>
        <time>2017-09-18T13:58:36Z</time>
      </trkpt>
      <trkpt lat="44.65572" lon="1.60777">
        <ele>371.21</ele>
        <time>2017-09-18T13:58:55Z</time>
      </trkpt>
      <trkpt lat="44.65563" lon="1.60749">
        <ele>372.17</ele>
        <time>2017-09-18T13:59:13Z</time>
      </trkpt>
      <trkpt lat="44.65557" lon="1.6072">
        <ele>373.13</ele>
        <time>2017-09-18T13:59:30Z</time>
      </trkpt>
      <trkpt lat="44.65551" lon="1.60692">
        <ele>374.09</ele>
        <time>2017-09-18T13:59:48Z</time>
      </trkpt>
      <trkpt lat="44.65544" lon="1.60662">
        <ele>375.53</ele>
        <time>2017-09-18T14:00:07Z</time>
      </trkpt>
      <trkpt lat="44.65536" lon="1.60634">
        <ele>376.97</ele>
        <time>2017-09-18T14:00:27Z</time>
      </trkpt>
      <trkpt lat="44.65527" lon="1.60616">
        <ele>377.94</ele>
        <time>2017-09-18T14:02:06Z</time>
      </trkpt>
      <trkpt lat="44.65507" lon="1.60607">
        <ele>378.9</ele>
        <time>2017-09-18T14:02:34Z</time>
      </trkpt>
      <trkpt lat="44.65491" lon="1.60591">
        <ele>379.38</ele>
        <time>2017-09-18T14:03:02Z</time>
      </trkpt>
      <trkpt lat="44.65483" lon="1.60567">
        <ele>379.86</ele>
        <time>2017-09-18T14:03:25Z</time>
      </trkpt>
      <trkpt lat="44.65478" lon="1.6054">
        <ele>379.86</ele>
        <time>2017-09-18T14:03:44Z</time>
      </trkpt>
      <trkpt lat="44.65473" lon="1.60514">
        <ele>379.86</ele>
        <time>2017-09-18T14:04:02Z</time>
      </trkpt>
      <trkpt lat="44.65468" lon="1.60489">
        <ele>380.34</ele>
        <time>2017-09-18T14:04:20Z</time>
      </trkpt>
      <trkpt lat="44.65463" lon="1.60462">
        <ele>380.82</ele>
        <time>2017-09-18T14:04:37Z</time>
      </trkpt>
      <trkpt lat="44.65458" lon="1.60437">
        <ele>381.3</ele>
        <time>2017-09-18T14:04:53Z</time>
      </trkpt>
      <trkpt lat="44.65454" lon="1.6041">
        <ele>381.78</ele>
        <time>2017-09-18T14:05:10Z</time>
      </trkpt>
      <trkpt lat="44.6545" lon="1.60384">
        <ele>382.74</ele>
        <time>2017-09-18T14:05:27Z</time>
      </trkpt>
      <trkpt lat="44.65446" lon="1.60359">
        <ele>383.7</ele>
        <time>2017-09-18T14:05:44Z</time>
      </trkpt>
      <trkpt lat="44.65443" lon="1.60331">
        <ele>384.66</ele>
        <time>2017-09-18T14:06:03Z</time>
      </trkpt>
      <trkpt lat="44.65441" lon="1.60304">
        <ele>385.63</ele>
        <time>2017-09-18T14:06:21Z</time>
      </trkpt>
      <trkpt lat="44.65446" lon="1.60275">
        <ele>386.59</ele>
        <time>2017-09-18T14:06:40Z</time>
      </trkpt>
      <trkpt lat="44.65454" lon="1.60247">
        <ele>388.03</ele>
        <time>2017-09-18T14:06:59Z</time>
      </trkpt>
      <trkpt lat="44.65451" lon="1.60239">
        <ele>388.51</ele>
        <time>2017-09-18T14:08:06Z</time>
      </trkpt>
      <trkpt lat="44.6545" lon="1.60246">
        <ele>388.99</ele>
        <time>2017-09-18T14:09:37Z</time>
      </trkpt>
      <trkpt lat="44.65451" lon="1.60244">
        <ele>388.99</ele>
        <time>2017-09-18T14:10:16Z</time>
      </trkpt>
      <trkpt lat="44.65451" lon="1.60232">
        <ele>388.99</ele>
        <time>2017-09-18T14:11:11Z</time>
      </trkpt>
      <trkpt lat="44.65449" lon="1.60228">
        <ele>390.91</ele>
        <time>2017-09-18T14:19:20Z</time>
      </trkpt>
      <trkpt lat="44.65452" lon="1.60214">
        <ele>389.95</ele>
        <time>2017-09-18T14:21:11Z</time>
      </trkpt>
      <trkpt lat="44.65445" lon="1.60187">
        <ele>391.39</ele>
        <time>2017-09-18T14:21:32Z</time>
      </trkpt>
      <trkpt lat="44.65442" lon="1.60161">
        <ele>392.84</ele>
        <time>2017-09-18T14:21:51Z</time>
      </trkpt>
      <trkpt lat="44.65437" lon="1.60137">
        <ele>393.8</ele>
        <time>2017-09-18T14:22:10Z</time>
      </trkpt>
      <trkpt lat="44.65432" lon="1.60111">
        <ele>394.76</ele>
        <time>2017-09-18T14:22:30Z</time>
      </trkpt>
      <trkpt lat="44.65425" lon="1.60085">
        <ele>396.68</ele>
        <time>2017-09-18T14:22:51Z</time>
      </trkpt>
      <trkpt lat="44.65415" lon="1.60059">
        <ele>398.12</ele>
        <time>2017-09-18T14:23:13Z</time>
      </trkpt>
      <trkpt lat="44.65408" lon="1.6003">
        <ele>399.57</ele>
        <time>2017-09-18T14:23:32Z</time>
      </trkpt>
      <trkpt lat="44.65403" lon="1.59999">
        <ele>400.53</ele>
        <time>2017-09-18T14:23:53Z</time>
      </trkpt>
      <trkpt lat="44.65398" lon="1.5997">
        <ele>401.01</ele>
        <time>2017-09-18T14:24:12Z</time>
      </trkpt>
      <trkpt lat="44.65386" lon="1.59946">
        <ele>402.45</ele>
        <time>2017-09-18T14:24:32Z</time>
      </trkpt>
      <trkpt lat="44.65373" lon="1.59923">
        <ele>403.89</ele>
        <time>2017-09-18T14:24:52Z</time>
      </trkpt>
      <trkpt lat="44.65359" lon="1.59899">
        <ele>405.81</ele>
        <time>2017-09-18T14:25:13Z</time>
      </trkpt>
      <trkpt lat="44.65345" lon="1.59875">
        <ele>407.74</ele>
        <time>2017-09-18T14:25:34Z</time>
      </trkpt>
      <trkpt lat="44.65337" lon="1.59848">
        <ele>409.66</ele>
        <time>2017-09-18T14:25:54Z</time>
      </trkpt>
      <trkpt lat="44.65331" lon="1.59823">
        <ele>411.1</ele>
        <time>2017-09-18T14:26:14Z</time>
      </trkpt>
      <trkpt lat="44.65325" lon="1.59795">
        <ele>412.54</ele>
        <time>2017-09-18T14:26:38Z</time>
      </trkpt>
      <trkpt lat="44.6532" lon="1.59766">
        <ele>413.5</ele>
        <time>2017-09-18T14:26:58Z</time>
      </trkpt>
      <trkpt lat="44.65316" lon="1.59735">
        <ele>414.95</ele>
        <time>2017-09-18T14:27:17Z</time>
      </trkpt>
      <trkpt lat="44.65314" lon="1.59708">
        <ele>416.39</ele>
        <time>2017-09-18T14:27:37Z</time>
      </trkpt>
      <trkpt lat="44.65312" lon="1.59681">
        <ele>417.35</ele>
        <time>2017-09-18T14:27:55Z</time>
      </trkpt>
      <trkpt lat="44.65307" lon="1.59653">
        <ele>419.75</ele>
        <time>2017-09-18T14:28:17Z</time>
      </trkpt>
      <trkpt lat="44.653" lon="1.59626">
        <ele>420.71</ele>
        <time>2017-09-18T14:28:37Z</time>
      </trkpt>
      <trkpt lat="44.65295" lon="1.59598">
        <ele>422.64</ele>
        <time>2017-09-18T14:28:58Z</time>
      </trkpt>
      <trkpt lat="44.6529" lon="1.5957">
        <ele>425.04</ele>
        <time>2017-09-18T14:29:23Z</time>
      </trkpt>
      <trkpt lat="44.65282" lon="1.5954">
        <ele>427.44</ele>
        <time>2017-09-18T14:29:48Z</time>
      </trkpt>
      <trkpt lat="44.65276" lon="1.59512">
        <ele>428.89</ele>
        <time>2017-09-18T14:30:10Z</time>
      </trkpt>
      <trkpt lat="44.65274" lon="1.59481">
        <ele>429.85</ele>
        <time>2017-09-18T14:30:31Z</time>
      </trkpt>
      <trkpt lat="44.65279" lon="1.5945">
        <ele>429.85</ele>
        <time>2017-09-18T14:30:53Z</time>
      </trkpt>
      <trkpt lat="44.65284" lon="1.5942">
        <ele>428.4</ele>
        <time>2017-09-18T14:31:13Z</time>
      </trkpt>
      <trkpt lat="44.65287" lon="1.59391">
        <ele>427.92</ele>
        <time>2017-09-18T14:31:32Z</time>
      </trkpt>
      <trkpt lat="44.65288" lon="1.59362">
        <ele>426.96</ele>
        <time>2017-09-18T14:31:51Z</time>
      </trkpt>
      <trkpt lat="44.6529" lon="1.59335">
        <ele>426</ele>
        <time>2017-09-18T14:32:09Z</time>
      </trkpt>
      <trkpt lat="44.65293" lon="1.59306">
        <ele>425.04</ele>
        <time>2017-09-18T14:32:31Z</time>
      </trkpt>
      <trkpt lat="44.65286" lon="1.59283">
        <ele>423.6</ele>
        <time>2017-09-18T14:32:51Z</time>
      </trkpt>
      <trkpt lat="44.65267" lon="1.59285">
        <ele>423.12</ele>
        <time>2017-09-18T14:33:12Z</time>
      </trkpt>
      <trkpt lat="44.65243" lon="1.5929">
        <ele>422.16</ele>
        <time>2017-09-18T14:33:35Z</time>
      </trkpt>
      <trkpt lat="44.65222" lon="1.59294">
        <ele>420.23</ele>
        <time>2017-09-18T14:33:55Z</time>
      </trkpt>
      <trkpt lat="44.65202" lon="1.59298">
        <ele>418.31</ele>
        <time>2017-09-18T14:34:12Z</time>
      </trkpt>
      <trkpt lat="44.65183" lon="1.59305">
        <ele>416.39</ele>
        <time>2017-09-18T14:34:29Z</time>
      </trkpt>
      <trkpt lat="44.65162" lon="1.5931">
        <ele>414.95</ele>
        <time>2017-09-18T14:34:47Z</time>
      </trkpt>
      <trkpt lat="44.65143" lon="1.59314">
        <ele>413.02</ele>
        <time>2017-09-18T14:35:05Z</time>
      </trkpt>
      <trkpt lat="44.65123" lon="1.59323">
        <ele>411.58</ele>
        <time>2017-09-18T14:35:23Z</time>
      </trkpt>
      <trkpt lat="44.65105" lon="1.59338">
        <ele>410.14</ele>
        <time>2017-09-18T14:35:41Z</time>
      </trkpt>
      <trkpt lat="44.65088" lon="1.59352">
        <ele>408.22</ele>
        <time>2017-09-18T14:36:00Z</time>
      </trkpt>
      <trkpt lat="44.65072" lon="1.59368">
        <ele>406.29</ele>
        <time>2017-09-18T14:36:19Z</time>
      </trkpt>
      <trkpt lat="44.65057" lon="1.59387">
        <ele>403.89</ele>
        <time>2017-09-18T14:36:39Z</time>
      </trkpt>
      <trkpt lat="44.6504" lon="1.59405">
        <ele>402.45</ele>
        <time>2017-09-18T14:37:01Z</time>
      </trkpt>
      <trkpt lat="44.65025" lon="1.59426">
        <ele>401.49</ele>
        <time>2017-09-18T14:37:21Z</time>
      </trkpt>
      <trkpt lat="44.6501" lon="1.59446">
        <ele>400.53</ele>
        <time>2017-09-18T14:37:41Z</time>
      </trkpt>
      <trkpt lat="44.64995" lon="1.5947">
        <ele>399.08</ele>
        <time>2017-09-18T14:38:02Z</time>
      </trkpt>
      <trkpt lat="44.6498" lon="1.59497">
        <ele>398.12</ele>
        <time>2017-09-18T14:38:27Z</time>
      </trkpt>
      <trkpt lat="44.6497" lon="1.59526">
        <ele>396.2</ele>
        <time>2017-09-18T14:38:49Z</time>
      </trkpt>
      <trkpt lat="44.64955" lon="1.59539">
        <ele>394.28</ele>
        <time>2017-09-18T14:39:21Z</time>
      </trkpt>
      <trkpt lat="44.64934" lon="1.59541">
        <ele>392.36</ele>
        <time>2017-09-18T14:40:06Z</time>
      </trkpt>
      <trkpt lat="44.64916" lon="1.59552">
        <ele>389.95</ele>
        <time>2017-09-18T14:40:27Z</time>
      </trkpt>
      <trkpt lat="44.64897" lon="1.59565">
        <ele>387.55</ele>
        <time>2017-09-18T14:40:45Z</time>
      </trkpt>
      <trkpt lat="44.6488" lon="1.59581">
        <ele>385.63</ele>
        <time>2017-09-18T14:41:03Z</time>
      </trkpt>
      <trkpt lat="44.64883" lon="1.59603">
        <ele>383.7</ele>
        <time>2017-09-18T14:41:21Z</time>
      </trkpt>
      <trkpt lat="44.64894" lon="1.59629">
        <ele>382.74</ele>
        <time>2017-09-18T14:41:40Z</time>
      </trkpt>
      <trkpt lat="44.64897" lon="1.59657">
        <ele>382.26</ele>
        <time>2017-09-18T14:41:57Z</time>
      </trkpt>
      <trkpt lat="44.64896" lon="1.59646">
        <ele>381.3</ele>
        <time>2017-09-18T14:42:24Z</time>
      </trkpt>
      <trkpt lat="44.64882" lon="1.59645">
        <ele>380.82</ele>
        <time>2017-09-18T14:43:32Z</time>
      </trkpt>
      <trkpt lat="44.64867" lon="1.5963">
        <ele>380.34</ele>
        <time>2017-09-18T14:43:49Z</time>
      </trkpt>
      <trkpt lat="44.6485" lon="1.59611">
        <ele>379.38</ele>
        <time>2017-09-18T14:44:11Z</time>
      </trkpt>
      <trkpt lat="44.64832" lon="1.59589">
        <ele>378.9</ele>
        <time>2017-09-18T14:44:31Z</time>
      </trkpt>
      <trkpt lat="44.64816" lon="1.5957">
        <ele>377.45</ele>
        <time>2017-09-18T14:44:50Z</time>
      </trkpt>
      <trkpt lat="44.64798" lon="1.59555">
        <ele>376.01</ele>
        <time>2017-09-18T14:45:14Z</time>
      </trkpt>
      <trkpt lat="44.6478" lon="1.59538">
        <ele>373.61</ele>
        <time>2017-09-18T14:45:36Z</time>
      </trkpt>
      <trkpt lat="44.64767" lon="1.59516">
        <ele>371.69</ele>
        <time>2017-09-18T14:45:57Z</time>
      </trkpt>
      <trkpt lat="44.6476" lon="1.5949">
        <ele>370.24</ele>
        <time>2017-09-18T14:46:17Z</time>
      </trkpt>
      <trkpt lat="44.64763" lon="1.59462">
        <ele>370.24</ele>
        <time>2017-09-18T14:46:36Z</time>
      </trkpt>
      <trkpt lat="44.6476" lon="1.59428">
        <ele>370.24</ele>
        <time>2017-09-18T14:46:54Z</time>
      </trkpt>
      <trkpt lat="44.64754" lon="1.594">
        <ele>370.24</ele>
        <time>2017-09-18T14:47:12Z</time>
      </trkpt>
      <trkpt lat="44.64749" lon="1.59371">
        <ele>369.76</ele>
        <time>2017-09-18T14:47:31Z</time>
      </trkpt>
      <trkpt lat="44.64742" lon="1.59343">
        <ele>369.76</ele>
        <time>2017-09-18T14:47:49Z</time>
      </trkpt>
      <trkpt lat="44.6473" lon="1.59318">
        <ele>371.21</ele>
        <time>2017-09-18T14:48:09Z</time>
      </trkpt>
      <trkpt lat="44.6472" lon="1.59293">
        <ele>371.21</ele>
        <time>2017-09-18T14:48:30Z</time>
      </trkpt>
      <trkpt lat="44.64718" lon="1.59263">
        <ele>371.21</ele>
        <time>2017-09-18T14:48:51Z</time>
      </trkpt>
      <trkpt lat="44.64718" lon="1.59232">
        <ele>372.65</ele>
        <time>2017-09-18T14:49:13Z</time>
      </trkpt>
      <trkpt lat="44.64718" lon="1.59204">
        <ele>373.13</ele>
        <time>2017-09-18T14:49:32Z</time>
      </trkpt>
      <trkpt lat="44.64712" lon="1.5917">
        <ele>373.61</ele>
        <time>2017-09-18T14:49:55Z</time>
      </trkpt>
      <trkpt lat="44.64703" lon="1.59145">
        <ele>373.61</ele>
        <time>2017-09-18T14:50:14Z</time>
      </trkpt>
      <trkpt lat="44.6469" lon="1.59121">
        <ele>373.61</ele>
        <time>2017-09-18T14:50:34Z</time>
      </trkpt>
      <trkpt lat="44.64672" lon="1.591">
        <ele>373.13</ele>
        <time>2017-09-18T14:50:59Z</time>
      </trkpt>
      <trkpt lat="44.64656" lon="1.59072">
        <ele>373.13</ele>
        <time>2017-09-18T14:51:23Z</time>
      </trkpt>
      <trkpt lat="44.64645" lon="1.59048">
        <ele>373.13</ele>
        <time>2017-09-18T14:51:42Z</time>
      </trkpt>
      <trkpt lat="44.64643" lon="1.59015">
        <ele>373.61</ele>
        <time>2017-09-18T14:52:02Z</time>
      </trkpt>
      <trkpt lat="44.64637" lon="1.58986">
        <ele>373.61</ele>
        <time>2017-09-18T14:52:20Z</time>
      </trkpt>
      <trkpt lat="44.64627" lon="1.58955">
        <ele>373.61</ele>
        <time>2017-09-18T14:52:37Z</time>
      </trkpt>
      <trkpt lat="44.64619" lon="1.5893">
        <ele>374.09</ele>
        <time>2017-09-18T14:52:54Z</time>
      </trkpt>
      <trkpt lat="44.6461" lon="1.58905">
        <ele>373.61</ele>
        <time>2017-09-18T14:53:12Z</time>
      </trkpt>
      <trkpt lat="44.64599" lon="1.58882">
        <ele>373.61</ele>
        <time>2017-09-18T14:53:31Z</time>
      </trkpt>
      <trkpt lat="44.64588" lon="1.58856">
        <ele>374.09</ele>
        <time>2017-09-18T14:53:49Z</time>
      </trkpt>
      <trkpt lat="44.64577" lon="1.5883">
        <ele>374.57</ele>
        <time>2017-09-18T14:54:10Z</time>
      </trkpt>
      <trkpt lat="44.64565" lon="1.58801">
        <ele>374.57</ele>
        <time>2017-09-18T14:54:30Z</time>
      </trkpt>
      <trkpt lat="44.64553" lon="1.58772">
        <ele>375.05</ele>
        <time>2017-09-18T14:54:51Z</time>
      </trkpt>
      <trkpt lat="44.6454" lon="1.58745">
        <ele>375.05</ele>
        <time>2017-09-18T14:55:14Z</time>
      </trkpt>
      <trkpt lat="44.64525" lon="1.58714">
        <ele>376.01</ele>
        <time>2017-09-18T14:55:37Z</time>
      </trkpt>
      <trkpt lat="44.64513" lon="1.58687">
        <ele>376.97</ele>
        <time>2017-09-18T14:56:00Z</time>
      </trkpt>
      <trkpt lat="44.64499" lon="1.5866">
        <ele>377.45</ele>
        <time>2017-09-18T14:56:21Z</time>
      </trkpt>
      <trkpt lat="44.64486" lon="1.58634">
        <ele>377.45</ele>
        <time>2017-09-18T14:56:43Z</time>
      </trkpt>
      <trkpt lat="44.64478" lon="1.58603">
        <ele>377.94</ele>
        <time>2017-09-18T14:57:04Z</time>
      </trkpt>
      <trkpt lat="44.64462" lon="1.58592">
        <ele>377.94</ele>
        <time>2017-09-18T14:58:06Z</time>
      </trkpt>
      <trkpt lat="44.64443" lon="1.58597">
        <ele>377.45</ele>
        <time>2017-09-18T15:00:01Z</time>
      </trkpt>
      <trkpt lat="44.64467" lon="1.58584">
        <ele>377.45</ele>
        <time>2017-09-18T15:00:21Z</time>
      </trkpt>
      <trkpt lat="44.64492" lon="1.58578">
        <ele>378.9</ele>
        <time>2017-09-18T15:00:40Z</time>
      </trkpt>
      <trkpt lat="44.64511" lon="1.5856">
        <ele>380.82</ele>
        <time>2017-09-18T15:00:58Z</time>
      </trkpt>
      <trkpt lat="44.6452" lon="1.58532">
        <ele>381.78</ele>
        <time>2017-09-18T15:01:15Z</time>
      </trkpt>
      <trkpt lat="44.64529" lon="1.58504">
        <ele>382.26</ele>
        <time>2017-09-18T15:01:32Z</time>
      </trkpt>
      <trkpt lat="44.64542" lon="1.5847">
        <ele>382.26</ele>
        <time>2017-09-18T15:01:52Z</time>
      </trkpt>
      <trkpt lat="44.64556" lon="1.58437">
        <ele>383.7</ele>
        <time>2017-09-18T15:02:15Z</time>
      </trkpt>
      <trkpt lat="44.64566" lon="1.58405">
        <ele>384.18</ele>
        <time>2017-09-18T15:02:38Z</time>
      </trkpt>
      <trkpt lat="44.64573" lon="1.58374">
        <ele>384.18</ele>
        <time>2017-09-18T15:03:01Z</time>
      </trkpt>
      <trkpt lat="44.64584" lon="1.58343">
        <ele>384.66</ele>
        <time>2017-09-18T15:03:22Z</time>
      </trkpt>
      <trkpt lat="44.64595" lon="1.5831">
        <ele>385.15</ele>
        <time>2017-09-18T15:03:46Z</time>
      </trkpt>
      <trkpt lat="44.64605" lon="1.5828">
        <ele>385.15</ele>
        <time>2017-09-18T15:04:07Z</time>
      </trkpt>
      <trkpt lat="44.64611" lon="1.58251">
        <ele>385.15</ele>
        <time>2017-09-18T15:04:30Z</time>
      </trkpt>
      <trkpt lat="44.64605" lon="1.5822">
        <ele>385.15</ele>
        <time>2017-09-18T15:04:50Z</time>
      </trkpt>
      <trkpt lat="44.64603" lon="1.58191">
        <ele>385.15</ele>
        <time>2017-09-18T15:05:09Z</time>
      </trkpt>
      <trkpt lat="44.64604" lon="1.58161">
        <ele>385.63</ele>
        <time>2017-09-18T15:05:27Z</time>
      </trkpt>
      <trkpt lat="44.64608" lon="1.58131">
        <ele>386.59</ele>
        <time>2017-09-18T15:05:47Z</time>
      </trkpt>
      <trkpt lat="44.64611" lon="1.58101">
        <ele>387.07</ele>
        <time>2017-09-18T15:06:05Z</time>
      </trkpt>
      <trkpt lat="44.64625" lon="1.58079">
        <ele>388.51</ele>
        <time>2017-09-18T15:06:25Z</time>
      </trkpt>
      <trkpt lat="44.64652" lon="1.58082">
        <ele>392.36</ele>
        <time>2017-09-18T15:06:57Z</time>
      </trkpt>
      <trkpt lat="44.64679" lon="1.58081">
        <ele>396.2</ele>
        <time>2017-09-18T15:07:31Z</time>
      </trkpt>
      <trkpt lat="44.64693" lon="1.58058">
        <ele>398.6</ele>
        <time>2017-09-18T15:07:56Z</time>
      </trkpt>
      <trkpt lat="44.64701" lon="1.58026">
        <ele>400.05</ele>
        <time>2017-09-18T15:08:20Z</time>
      </trkpt>
      <trkpt lat="44.64709" lon="1.57994">
        <ele>401.97</ele>
        <time>2017-09-18T15:08:45Z</time>
      </trkpt>
      <trkpt lat="44.64716" lon="1.57961">
        <ele>402.93</ele>
        <time>2017-09-18T15:09:09Z</time>
      </trkpt>
      <trkpt lat="44.6472" lon="1.57931">
        <ele>403.41</ele>
        <time>2017-09-18T15:09:29Z</time>
      </trkpt>
      <trkpt lat="44.64724" lon="1.57905">
        <ele>403.41</ele>
        <time>2017-09-18T15:09:48Z</time>
      </trkpt>
      <trkpt lat="44.64728" lon="1.57879">
        <ele>403.41</ele>
        <time>2017-09-18T15:10:05Z</time>
      </trkpt>
      <trkpt lat="44.64733" lon="1.57852">
        <ele>403.89</ele>
        <time>2017-09-18T15:10:23Z</time>
      </trkpt>
      <trkpt lat="44.64738" lon="1.5782">
        <ele>403.89</ele>
        <time>2017-09-18T15:10:44Z</time>
      </trkpt>
      <trkpt lat="44.64747" lon="1.57795">
        <ele>404.85</ele>
        <time>2017-09-18T15:11:12Z</time>
      </trkpt>
      <trkpt lat="44.64753" lon="1.57763">
        <ele>403.89</ele>
        <time>2017-09-18T15:12:29Z</time>
      </trkpt>
      <trkpt lat="44.64759" lon="1.57733">
        <ele>403.89</ele>
        <time>2017-09-18T15:12:53Z</time>
      </trkpt>
      <trkpt lat="44.64766" lon="1.57705">
        <ele>406.77</ele>
        <time>2017-09-18T15:13:16Z</time>
      </trkpt>
      <trkpt lat="44.6477" lon="1.57678">
        <ele>408.7</ele>
        <time>2017-09-18T15:13:39Z</time>
      </trkpt>
      <trkpt lat="44.64773" lon="1.57651">
        <ele>409.66</ele>
        <time>2017-09-18T15:14:00Z</time>
      </trkpt>
      <trkpt lat="44.64778" lon="1.57623">
        <ele>410.14</ele>
        <time>2017-09-18T15:14:20Z</time>
      </trkpt>
      <trkpt lat="44.64785" lon="1.57594">
        <ele>411.58</ele>
        <time>2017-09-18T15:14:42Z</time>
      </trkpt>
      <trkpt lat="44.64788" lon="1.57566">
        <ele>411.58</ele>
        <time>2017-09-18T15:15:02Z</time>
      </trkpt>
      <trkpt lat="44.64792" lon="1.5754">
        <ele>411.58</ele>
        <time>2017-09-18T15:15:23Z</time>
      </trkpt>
      <trkpt lat="44.64793" lon="1.57511">
        <ele>412.54</ele>
        <time>2017-09-18T15:15:46Z</time>
      </trkpt>
      <trkpt lat="44.64798" lon="1.57484">
        <ele>413.98</ele>
        <time>2017-09-18T15:16:11Z</time>
      </trkpt>
      <trkpt lat="44.64808" lon="1.57458">
        <ele>415.43</ele>
        <time>2017-09-18T15:16:33Z</time>
      </trkpt>
      <trkpt lat="44.64817" lon="1.57433">
        <ele>415.91</ele>
        <time>2017-09-18T15:16:51Z</time>
      </trkpt>
      <trkpt lat="44.6482" lon="1.57404">
        <ele>416.39</ele>
        <time>2017-09-18T15:17:10Z</time>
      </trkpt>
      <trkpt lat="44.64827" lon="1.57379">
        <ele>416.87</ele>
        <time>2017-09-18T15:17:30Z</time>
      </trkpt>
      <trkpt lat="44.64839" lon="1.57348">
        <ele>418.31</ele>
        <time>2017-09-18T15:17:54Z</time>
      </trkpt>
      <trkpt lat="44.64853" lon="1.57322">
        <ele>419.75</ele>
        <time>2017-09-18T15:18:19Z</time>
      </trkpt>
      <trkpt lat="44.6487" lon="1.57297">
        <ele>422.16</ele>
        <time>2017-09-18T15:18:43Z</time>
      </trkpt>
      <trkpt lat="44.64881" lon="1.57268">
        <ele>422.16</ele>
        <time>2017-09-18T15:19:02Z</time>
      </trkpt>
      <trkpt lat="44.64886" lon="1.57237">
        <ele>422.16</ele>
        <time>2017-09-18T15:19:47Z</time>
      </trkpt>
      <trkpt lat="44.64891" lon="1.57209">
        <ele>422.64</ele>
        <time>2017-09-18T15:20:03Z</time>
      </trkpt>
      <trkpt lat="44.64897" lon="1.57181">
        <ele>423.12</ele>
        <time>2017-09-18T15:20:21Z</time>
      </trkpt>
      <trkpt lat="44.64911" lon="1.57165">
        <ele>425.52</ele>
        <time>2017-09-18T15:20:40Z</time>
      </trkpt>
      <trkpt lat="44.64931" lon="1.57155">
        <ele>427.92</ele>
        <time>2017-09-18T15:21:01Z</time>
      </trkpt>
      <trkpt lat="44.64946" lon="1.57139">
        <ele>431.77</ele>
        <time>2017-09-18T15:21:23Z</time>
      </trkpt>
      <trkpt lat="44.64945" lon="1.57119">
        <ele>431.77</ele>
        <time>2017-09-18T15:23:22Z</time>
      </trkpt>
      <trkpt lat="44.64937" lon="1.57095">
        <ele>432.25</ele>
        <time>2017-09-18T15:23:39Z</time>
      </trkpt>
      <trkpt lat="44.64926" lon="1.57071">
        <ele>432.25</ele>
        <time>2017-09-18T15:23:56Z</time>
      </trkpt>
      <trkpt lat="44.64917" lon="1.57047">
        <ele>432.73</ele>
        <time>2017-09-18T15:24:13Z</time>
      </trkpt>
      <trkpt lat="44.64908" lon="1.57021">
        <ele>432.73</ele>
        <time>2017-09-18T15:24:31Z</time>
      </trkpt>
      <trkpt lat="44.64898" lon="1.56995">
        <ele>433.21</ele>
        <time>2017-09-18T15:24:48Z</time>
      </trkpt>
      <trkpt lat="44.64888" lon="1.56972">
        <ele>433.69</ele>
        <time>2017-09-18T15:25:04Z</time>
      </trkpt>
      <trkpt lat="44.64881" lon="1.56949">
        <ele>434.17</ele>
        <time>2017-09-18T15:25:21Z</time>
      </trkpt>
      <trkpt lat="44.64872" lon="1.56927">
        <ele>435.13</ele>
        <time>2017-09-18T15:25:37Z</time>
      </trkpt>
      <trkpt lat="44.64862" lon="1.56903">
        <ele>436.1</ele>
        <time>2017-09-18T15:25:54Z</time>
      </trkpt>
      <trkpt lat="44.64851" lon="1.56879">
        <ele>436.58</ele>
        <time>2017-09-18T15:26:11Z</time>
      </trkpt>
      <trkpt lat="44.64838" lon="1.56866">
        <ele>437.06</ele>
        <time>2017-09-18T15:26:35Z</time>
      </trkpt>
      <trkpt lat="44.6482" lon="1.56853">
        <ele>437.06</ele>
        <time>2017-09-18T15:26:53Z</time>
      </trkpt>
      <trkpt lat="44.64802" lon="1.56843">
        <ele>437.06</ele>
        <time>2017-09-18T15:27:12Z</time>
      </trkpt>
      <trkpt lat="44.64783" lon="1.56839">
        <ele>437.54</ele>
        <time>2017-09-18T15:27:34Z</time>
      </trkpt>
      <trkpt lat="44.64759" lon="1.56828">
        <ele>437.54</ele>
        <time>2017-09-18T15:28:26Z</time>
      </trkpt>
      <trkpt lat="44.64742" lon="1.56841">
        <ele>437.54</ele>
        <time>2017-09-18T15:28:45Z</time>
      </trkpt>
      <trkpt lat="44.64724" lon="1.56838">
        <ele>438.5</ele>
        <time>2017-09-18T15:29:04Z</time>
      </trkpt>
      <trkpt lat="44.64704" lon="1.56845">
        <ele>439.46</ele>
        <time>2017-09-18T15:29:23Z</time>
      </trkpt>
      <trkpt lat="44.64683" lon="1.56849">
        <ele>439.46</ele>
        <time>2017-09-18T15:29:40Z</time>
      </trkpt>
      <trkpt lat="44.64663" lon="1.5684">
        <ele>439.46</ele>
        <time>2017-09-18T15:30:12Z</time>
      </trkpt>
      <trkpt lat="44.64647" lon="1.56834">
        <ele>439.46</ele>
        <time>2017-09-18T15:30:38Z</time>
      </trkpt>
      <trkpt lat="44.64628" lon="1.56842">
        <ele>440.42</ele>
        <time>2017-09-18T15:30:57Z</time>
      </trkpt>
    </trkseg>
  </trk>
</gpx>